createdAt,value
2023-05-16T00:03:23.352Z,14.52
2023-05-16T00:13:32.491Z,14.19
2023-05-16T00:23:41.154Z,15.22
2023-05-16T00:33:50.046Z,14.58
2023-05-16T00:43:58.674Z,15.22
2023-05-16T00:54:07.393Z,13.78
2023-05-16T01:04:16.110Z,13.8
2023-05-16T01:14:24.681Z,12.62
2023-05-16T01:24:33.468Z,11.13
2023-05-16T01:34:42.095Z,13.25
2023-05-16T01:44:52.520Z,13.49
2023-05-16T01:54:51.183Z,14.02
2023-05-16T02:04:59.762Z,14.81
2023-05-16T02:15:08.354Z,14.64
2023-05-16T02:25:16.923Z,16.01
2023-05-16T02:35:25.778Z,15.11
2023-05-16T02:45:34.207Z,13.69
2023-05-16T02:55:42.752Z,12.43
2023-05-16T03:05:51.345Z,11.08
2023-05-16T03:15:59.891Z,5.72
2023-05-16T03:26:08.477Z,4.21
2023-05-16T03:36:17.046Z,2.7
2023-05-16T03:46:25.764Z,2.74
2023-05-16T03:56:34.254Z,3
2023-05-16T04:06:42.797Z,2.05
2023-05-16T04:16:51.379Z,1.61
2023-05-16T04:26:59.883Z,1.46
2023-05-16T04:37:08.742Z,1.66
2023-05-16T04:47:24.201Z,1.67
2023-05-16T04:57:22.484Z,1.83
2023-05-16T05:07:31.024Z,1.66
2023-05-16T05:17:39.580Z,1.47
2023-05-16T05:27:48.133Z,1.47
2023-05-16T05:37:56.748Z,1.4
2023-05-16T05:48:05.320Z,1.76
2023-05-16T05:58:13.551Z,1.54
2023-05-16T06:08:22.073Z,1.43
2023-05-16T06:18:30.675Z,1.75
2023-05-16T06:28:39.242Z,1.62
2023-05-16T06:38:47.945Z,1.7
2023-05-16T06:48:57.862Z,1.31
2023-05-16T06:59:06.847Z,2.27
2023-05-16T07:09:15.862Z,1.79
2023-05-16T07:19:24.808Z,1.5
2023-05-16T07:29:33.721Z,1.31
2023-05-16T07:39:42.664Z,1.29
2023-05-16T07:49:51.566Z,1.88
2023-05-16T07:59:59.978Z,1.83
2023-05-16T08:10:09.739Z,1.66
2023-05-16T08:20:20.291Z,1.75
2023-05-16T08:30:19.105Z,1.82
2023-05-16T08:40:27.794Z,1.65
2023-05-16T08:50:36.615Z,1.57
2023-05-16T09:00:45.535Z,1.33
2023-05-16T09:10:54.368Z,1.33
2023-05-16T09:21:03.163Z,1.76
2023-05-16T09:31:11.976Z,1.6
2023-05-16T09:41:20.820Z,1.11
2023-05-16T09:51:29.678Z,0.98
2023-05-16T10:01:38.413Z,1.41
2023-05-16T10:11:47.361Z,1.36
2023-05-16T10:21:58.181Z,1.3
2023-05-16T10:31:57.397Z,1.09
2023-05-16T10:42:06.154Z,1.32
2023-05-16T10:52:15.233Z,2.44
2023-05-16T11:02:24.064Z,2.12
2023-05-16T11:12:32.706Z,2.25
2023-05-16T11:22:41.838Z,2.41
2023-05-16T11:32:50.800Z,2.48
2023-05-16T11:42:59.491Z,2.58
2023-05-16T11:53:09.125Z,2.42
2023-05-16T12:03:17.631Z,2.05
2023-05-16T12:13:26.031Z,1.81
2023-05-16T12:23:34.786Z,2.24
2023-05-16T12:33:43.752Z,1.84
2023-05-16T12:43:52.656Z,1.58
2023-05-16T12:54:10.296Z,1.69
2023-05-16T13:04:17.865Z,1.41
2023-05-16T13:14:06.659Z,1.38
2023-05-16T13:24:15.621Z,1.79
2023-05-16T13:34:24.393Z,1.38
2023-05-16T13:44:33.173Z,1.39
2023-05-16T13:54:44.955Z,1.28
2023-05-16T14:04:43.758Z,1.27
2023-05-16T14:14:52.969Z,1.69
2023-05-16T14:25:01.896Z,1.65
2023-05-16T14:35:10.784Z,1.82
2023-05-16T14:45:19.683Z,1.98
2023-05-16T14:55:28.796Z,1.87
2023-05-16T15:05:37.390Z,1.53
2023-05-16T15:15:46.106Z,1.89
2023-05-16T15:25:54.848Z,1.64
2023-05-16T15:36:03.526Z,1.39
2023-05-16T15:46:12.518Z,1.51
2023-05-16T15:56:22.398Z,1.58
2023-05-16T16:06:31.074Z,1.89
2023-05-16T16:16:40.063Z,1.8
2023-05-16T16:26:48.894Z,2
2023-05-16T16:36:57.764Z,1.71
2023-05-16T16:47:08.632Z,1.8
2023-05-16T16:57:07.398Z,3.04
2023-05-16T17:07:16.284Z,3.18
2023-05-16T17:17:25.059Z,4.52
2023-05-16T17:27:33.936Z,6.7
2023-05-16T17:37:42.693Z,7.99
2023-05-16T17:47:51.543Z,8.34
2023-05-16T17:58:02.728Z,4.88
2023-05-16T18:08:01.551Z,4.83
2023-05-16T18:18:10.323Z,5.47
2023-05-16T18:26:50.389Z,5.67
2023-05-16T18:35:59.433Z,5.25
2023-05-16T18:46:08.608Z,5.64
2023-05-16T18:56:18.561Z,5.23
2023-05-16T19:06:27.252Z,3.65
2023-05-16T19:16:40.954Z,3.17
2023-05-16T19:26:48.473Z,2.86
2023-05-16T19:36:55.840Z,3.08
2023-05-16T19:46:57.718Z,2.83
2023-05-16T19:56:56.764Z,2.79
2023-05-16T20:07:06.597Z,3.1
2023-05-16T20:17:15.517Z,3.17
2023-05-16T20:27:24.394Z,3.03
2023-05-16T20:37:35.306Z,3.14
2023-05-16T20:47:45.110Z,3.56
2023-05-16T20:57:48.895Z,3.44
2023-05-16T21:07:53.873Z,3.17
2023-05-16T21:18:00.407Z,3.35
2023-05-16T21:28:03.194Z,2.91
2023-05-16T21:38:06.239Z,3.39
2023-05-16T21:48:05.106Z,3.93
2023-05-16T21:58:13.836Z,4.17
2023-05-16T22:08:22.693Z,3.48
2023-05-16T22:18:31.843Z,3.47
2023-05-16T22:28:40.463Z,5.68
2023-05-16T22:38:49.240Z,5.47
2023-05-16T22:48:58.271Z,4.67
2023-05-16T22:59:07.275Z,5.1
2023-05-16T23:09:16.226Z,7.24
2023-05-16T23:19:25.101Z,8.54
2023-05-16T23:29:33.854Z,10.76
2023-05-16T23:39:42.721Z,11.51
2023-05-16T23:49:51.667Z,10.18
